createdAt,value
2023-01-17T00:00:22.581Z,5.26
2023-01-17T00:02:54.147Z,5.36
2023-01-17T00:05:39.273Z,5.48
2023-01-17T00:08:32.957Z,5.45
2023-01-17T00:10:59.538Z,5.75
2023-01-17T00:13:26.606Z,5.93
2023-01-17T00:15:53.303Z,5.80
2023-01-17T00:18:25.049Z,5.58
2023-01-17T00:21:09.840Z,5.57
2023-01-17T00:23:54.863Z,5.52
2023-01-17T00:26:59.530Z,5.57
2023-01-17T00:29:50.066Z,5.29
2023-01-17T00:32:19.576Z,5.63
2023-01-17T00:34:46.075Z,5.49
2023-01-17T00:37:12.585Z,5.89
2023-01-17T00:39:39.084Z,5.61
2023-01-17T00:42:05.573Z,5.56
2023-01-17T00:44:50.518Z,5.85
2023-01-17T00:47:35.662Z,5.78
2023-01-17T00:50:20.568Z,6.12
2023-01-17T00:53:06.127Z,5.58
2023-01-17T00:55:52.219Z,5.62
2023-01-17T00:59:18.013Z,5.86
2023-01-17T01:02:06.288Z,6.13
2023-01-17T01:04:51.477Z,6.04
2023-01-17T01:07:36.371Z,6.38
2023-01-17T01:10:21.670Z,6.04
2023-01-17T01:13:06.514Z,6.38
2023-01-17T01:18:30.146Z,5.77
2023-01-17T01:21:20.127Z,5.33
2023-01-17T01:24:05.100Z,5.42
2023-01-17T01:30:23.810Z,5.27
2023-01-17T01:33:09.071Z,5.61
2023-01-17T01:35:36.746Z,5.38
2023-01-17T01:38:03.957Z,5.87
2023-01-17T01:40:30.501Z,6.16
2023-01-17T01:42:59.704Z,5.92
2023-01-17T01:48:07.182Z,5.44
2023-01-17T01:50:36.954Z,5.92
2023-01-17T01:53:05.799Z,5.64
2023-01-17T01:55:39.056Z,5.78
2023-01-17T01:58:16.604Z,5.53
2023-01-17T02:00:50.420Z,5.98
2023-01-17T02:03:21.608Z,6.04
2023-01-17T02:05:48.276Z,6.08
2023-01-17T02:08:18.151Z,6.23
2023-01-17T02:10:44.772Z,6.12
2023-01-17T02:13:15.418Z,5.69
2023-01-17T02:16:17.526Z,5.63
2023-01-17T02:19:22.265Z,5.89
2023-01-17T02:22:09.908Z,5.96
2023-01-17T02:24:48.335Z,5.55
2023-01-17T02:27:27.383Z,5.66
2023-01-17T02:30:38.138Z,5.65
2023-01-17T02:33:53.046Z,5.75
2023-01-17T02:36:25.689Z,5.67
2023-01-17T02:39:07.599Z,5.36
2023-01-17T02:41:46.652Z,5.30
2023-01-17T02:44:18.232Z,5.50
2023-01-17T02:46:45.893Z,5.95
2023-01-17T02:52:27.161Z,5.88
2023-01-17T02:55:01.316Z,5.43
2023-01-17T02:57:49.352Z,5.64
2023-01-17T03:00:28.423Z,5.77
2023-01-17T03:03:02.359Z,5.54
2023-01-17T03:09:07.748Z,5.75
2023-01-17T03:11:34.526Z,5.78
2023-01-17T03:14:01.109Z,6.24
2023-01-17T03:16:31.386Z,5.84
2023-01-17T03:18:57.958Z,5.87
2023-01-17T03:21:25.185Z,6.02
2023-01-17T03:26:47.978Z,5.69
2023-01-17T03:29:16.598Z,5.87
2023-01-17T03:31:43.233Z,5.71
2023-01-17T03:34:09.807Z,5.48
2023-01-17T03:36:36.393Z,5.83
2023-01-17T03:39:08.163Z,5.56
2023-01-17T03:41:34.721Z,5.71
2023-01-17T03:44:10.336Z,5.63
2023-01-17T03:46:37.210Z,5.59
2023-01-17T03:49:03.805Z,6.19
2023-01-17T03:51:30.370Z,5.83
2023-01-17T03:54:09.142Z,5.77
2023-01-17T03:56:35.721Z,5.84
2023-01-17T03:59:02.588Z,5.51
2023-01-17T04:01:29.222Z,5.44
2023-01-17T04:03:55.852Z,5.60
2023-01-17T04:06:22.398Z,5.41
2023-01-17T04:08:49.042Z,5.56
2023-01-17T04:11:15.652Z,5.49
2023-01-17T04:13:42.190Z,5.92
2023-01-17T04:16:17.732Z,5.72
2023-01-17T04:18:44.762Z,5.54
2023-01-17T04:24:17.876Z,5.68
2023-01-17T04:26:45.164Z,5.76
2023-01-17T04:29:11.736Z,6.06
2023-01-17T04:31:38.476Z,5.97
2023-01-17T04:34:05.084Z,6.26
2023-01-17T04:36:32.375Z,5.94
2023-01-17T04:38:58.980Z,5.78
2023-01-17T04:41:25.788Z,5.95
2023-01-17T04:43:52.325Z,6.21
2023-01-17T04:46:18.957Z,5.86
2023-01-17T04:48:45.588Z,5.94
2023-01-17T04:51:12.151Z,5.89
2023-01-17T04:56:34.217Z,6.12
2023-01-17T04:59:00.763Z,5.95
2023-01-17T05:01:27.453Z,6.21
2023-01-17T05:03:54.073Z,5.98
2023-01-17T05:06:20.689Z,5.86
2023-01-17T05:08:53.522Z,6.22
2023-01-17T05:11:25.285Z,5.77
2023-01-17T05:14:08.435Z,5.81
2023-01-17T05:31:00.565Z,5.98
2023-01-17T05:33:27.130Z,5.69
2023-01-17T05:35:53.748Z,5.84
2023-01-17T05:38:23.786Z,5.70
2023-01-17T05:40:50.705Z,5.82
2023-01-17T05:43:17.414Z,6.32
2023-01-17T05:45:48.448Z,6.07
2023-01-17T05:48:30.402Z,5.93
2023-01-17T05:50:57.430Z,5.63
2023-01-17T05:53:24.065Z,5.52
2023-01-17T05:55:51.160Z,5.66
2023-01-17T05:58:21.729Z,5.66
2023-01-17T06:00:48.784Z,5.81
2023-01-17T06:03:16.197Z,5.87
2023-01-17T06:05:43.272Z,5.93
2023-01-17T06:08:10.908Z,6.26
2023-01-17T06:10:37.723Z,5.88
2023-01-17T06:13:07.560Z,6.13
2023-01-17T06:15:36.370Z,6.61
2023-01-17T06:18:11.289Z,6.61
2023-01-17T06:20:38.406Z,6.36
2023-01-17T06:23:07.581Z,6.22
2023-01-17T06:25:38.712Z,6.37
2023-01-17T06:28:07.166Z,6.57
2023-01-17T06:30:34.374Z,6.24
2023-01-17T06:33:00.947Z,6.44
2023-01-17T06:35:27.620Z,6.19
2023-01-17T06:37:55.669Z,6.30
2023-01-17T06:40:22.711Z,6.55
2023-01-17T06:42:49.255Z,6.23
2023-01-17T06:45:15.931Z,6.12
2023-01-17T06:47:43.200Z,6.33
2023-01-17T06:50:13.637Z,6.21
2023-01-17T06:52:41.825Z,6.79
2023-01-17T06:55:09.828Z,6.40
2023-01-17T06:57:36.699Z,6.37
2023-01-17T07:00:04.527Z,6.51
2023-01-17T07:02:31.118Z,6.65
2023-01-17T07:05:09.956Z,6.67
2023-01-17T07:07:52.020Z,6.70
2023-01-17T07:10:18.578Z,6.58
2023-01-17T07:12:45.193Z,6.78
2023-01-17T07:15:12.521Z,6.50
2023-01-17T07:17:39.663Z,6.36
2023-01-17T07:20:06.840Z,6.46
2023-01-17T07:22:33.441Z,6.32
2023-01-17T07:25:00.349Z,6.54
2023-01-17T07:27:30.727Z,6.48
2023-01-17T07:29:58.172Z,6.66
2023-01-17T07:32:26.666Z,6.76
2023-01-17T07:34:54.057Z,6.64
2023-01-17T07:37:21.301Z,6.73
2023-01-17T07:39:47.918Z,6.62
2023-01-17T07:42:14.458Z,6.66
2023-01-17T07:44:43.981Z,6.31
2023-01-17T07:47:11.338Z,6.21
2023-01-17T07:49:38.070Z,6.42
2023-01-17T07:52:07.825Z,6.76
2023-01-17T07:54:34.761Z,6.76
2023-01-17T07:57:02.015Z,6.57
2023-01-17T07:59:28.867Z,6.53
2023-01-17T08:01:55.568Z,6.59
2023-01-17T08:04:26.244Z,6.95
2023-01-17T08:06:54.888Z,6.76
2023-01-17T08:09:22.357Z,7.10
2023-01-17T08:11:49.275Z,6.68
2023-01-17T08:14:15.927Z,7.06
2023-01-17T08:16:42.853Z,7.28
2023-01-17T08:19:10.247Z,7.14
2023-01-17T08:21:36.952Z,7.07
2023-01-17T08:24:15.766Z,7.29
2023-01-17T08:26:57.895Z,7.51
2023-01-17T08:29:29.669Z,7.59
2023-01-17T08:31:56.284Z,7.62
2023-01-17T08:34:22.828Z,7.22
2023-01-17T08:36:51.846Z,7.64
2023-01-17T08:39:23.386Z,7.79
2023-01-17T08:41:49.928Z,8.11
2023-01-17T08:44:16.590Z,8.06
2023-01-17T08:46:44.216Z,7.91
2023-01-17T08:49:11.514Z,8.04
2023-01-17T08:51:38.545Z,8.14
2023-01-17T08:54:05.323Z,8.22
2023-01-17T08:56:31.863Z,8.12
2023-01-17T08:58:58.409Z,8.12
2023-01-17T09:01:25.076Z,7.65
2023-01-17T09:03:52.527Z,7.80
2023-01-17T09:06:19.247Z,7.30
2023-01-17T09:08:47.021Z,7.46
2023-01-17T09:11:17.084Z,7.54
2023-01-17T09:13:47.192Z,7.90
2023-01-17T09:16:13.824Z,7.71
2023-01-17T09:18:59.280Z,7.70
2023-01-17T09:21:50.806Z,7.58
2023-01-17T09:24:22.489Z,7.31
2023-01-17T09:26:49.076Z,7.67
2023-01-17T09:29:17.879Z,7.41
2023-01-17T09:31:47.167Z,7.57
2023-01-17T09:34:14.426Z,7.85
2023-01-17T09:36:42.100Z,7.67
2023-01-17T09:39:18.868Z,7.99
2023-01-17T09:41:52.909Z,8.10
2023-01-17T09:44:39.070Z,8.37
2023-01-17T09:47:42.488Z,8.21
2023-01-17T09:54:04.330Z,8.42
2023-01-17T09:57:12.776Z,8.03
2023-01-17T10:02:46.909Z,8.48
2023-01-17T10:05:33.391Z,8.55
2023-01-17T10:08:45.078Z,8.62
2023-01-17T10:11:43.171Z,8.76
2023-01-17T10:14:28.043Z,8.82
2023-01-17T10:17:03.178Z,8.92
2023-01-17T10:19:50.624Z,8.92
2023-01-17T10:22:35.875Z,8.94
2023-01-17T10:25:23.981Z,9.11
2023-01-17T10:28:04.579Z,9.30
2023-01-17T10:30:39.028Z,9.53
2023-01-17T10:33:19.432Z,9.54
2023-01-17T10:35:54.814Z,9.55
2023-01-17T10:38:43.398Z,9.79
2023-01-17T10:41:25.992Z,9.87
2023-01-17T10:44:17.408Z,10.03
2023-01-17T10:47:01.655Z,9.93
2023-01-17T10:50:33.989Z,9.68
2023-01-17T10:53:32.053Z,9.89
2023-01-17T10:56:00.837Z,9.82
2023-01-17T10:58:27.407Z,10.18
2023-01-17T11:01:27.408Z,10.18
2023-01-17T11:03:55.298Z,10.08
2023-01-17T11:06:24.470Z,10.01
2023-01-17T11:08:51.235Z,10.20
2023-01-17T11:11:19.795Z,10.00
2023-01-17T11:13:49.020Z,10.34
2023-01-17T11:16:22.189Z,10.51
2023-01-17T11:19:06.481Z,10.21
2023-01-17T11:21:33.485Z,10.37
2023-01-17T11:24:10.651Z,10.28
2023-01-17T11:26:45.733Z,10.36
2023-01-17T11:29:23.895Z,10.59
2023-01-17T11:31:50.450Z,10.33
2023-01-17T11:34:22.673Z,10.61
2023-01-17T11:36:50.003Z,10.41
2023-01-17T11:39:19.760Z,10.49
2023-01-17T11:41:47.892Z,10.45
2023-01-17T11:44:35.415Z,10.44
2023-01-17T11:47:12.372Z,10.14
2023-01-17T11:49:40.679Z,10.34
2023-01-17T11:52:36.036Z,10.36
2023-01-17T11:55:02.734Z,10.43
2023-01-17T11:57:33.416Z,10.06
2023-01-17T12:00:08.992Z,9.70
2023-01-17T12:03:15.295Z,9.92
2023-01-17T12:06:09.131Z,10.06
2023-01-17T12:08:54.469Z,10.38
2023-01-17T12:12:05.929Z,9.91
2023-01-17T12:15:10.319Z,9.87
2023-01-17T12:18:14.335Z,9.79
2023-01-17T12:20:49.752Z,9.39
2023-01-17T12:23:34.135Z,9.69
2023-01-17T12:26:25.579Z,9.92
2023-01-17T12:29:07.869Z,10.07
2023-01-17T12:31:38.854Z,10.45
2023-01-17T12:34:13.988Z,10.49
2023-01-17T12:36:52.537Z,10.20
2023-01-17T12:39:26.126Z,10.84
2023-01-17T12:42:13.502Z,10.77
2023-01-17T12:45:04.574Z,10.33
2023-01-17T12:47:34.803Z,10.36
2023-01-17T12:50:16.044Z,10.48
2023-01-17T12:53:19.039Z,10.44
2023-01-17T12:56:01.976Z,10.82
2023-01-17T12:58:36.885Z,9.98
2023-01-17T13:01:11.176Z,10.46
2023-01-17T13:03:44.922Z,9.39
2023-01-17T13:06:22.116Z,9.87
2023-01-17T13:08:53.584Z,9.46
2023-01-17T13:11:44.203Z,9.53
2023-01-17T13:14:10.829Z,9.67
2023-01-17T13:16:37.472Z,9.48
2023-01-17T13:19:24.845Z,9.12
2023-01-17T13:21:52.386Z,9.02
2023-01-17T13:24:35.947Z,8.39
2023-01-17T13:27:34.859Z,8.75
2023-01-17T13:30:32.230Z,8.70
2023-01-17T13:33:32.902Z,8.94
2023-01-17T13:36:30.084Z,8.50
2023-01-17T13:39:29.699Z,8.37
2023-01-17T13:42:25.055Z,8.66
2023-01-17T13:44:52.067Z,8.31
2023-01-17T13:47:18.566Z,8.16
2023-01-17T13:49:50.821Z,8.67
2023-01-17T13:52:20.268Z,8.30
2023-01-17T13:55:07.364Z,8.39
2023-01-17T13:57:42.073Z,8.46
2023-01-17T14:00:21.525Z,7.93
2023-01-17T14:02:49.666Z,8.28
2023-01-17T14:05:23.403Z,8.41
2023-01-17T14:08:14.368Z,8.61
2023-01-17T14:10:47.761Z,8.67
2023-01-17T14:13:37.354Z,8.91
2023-01-17T14:16:26.947Z,8.56
2023-01-17T14:18:54.473Z,8.68
2023-01-17T14:21:27.192Z,8.65
2023-01-17T14:24:20.184Z,8.70
2023-01-17T14:26:58.559Z,8.50
2023-01-17T14:29:43.925Z,8.33
2023-01-17T14:32:17.488Z,8.04
2023-01-17T14:34:46.524Z,8.02
2023-01-17T14:37:22.339Z,8.62
2023-01-17T14:39:51.034Z,7.99
2023-01-17T14:42:22.291Z,8.02
2023-01-17T14:44:52.818Z,7.89
2023-01-17T14:47:19.982Z,8.26
2023-01-17T14:49:46.516Z,8.66
2023-01-17T14:52:23.629Z,7.91
2023-01-17T14:54:53.992Z,8.11
2023-01-17T14:57:28.123Z,7.95
2023-01-17T15:00:19.252Z,7.65
2023-01-17T15:02:50.126Z,7.50
2023-01-17T15:05:20.056Z,7.75
2023-01-17T15:07:49.733Z,7.27
2023-01-17T15:10:24.027Z,7.35
2023-01-17T15:12:52.313Z,7.32
2023-01-17T15:15:28.253Z,7.70
2023-01-17T15:18:13.146Z,7.19
2023-01-17T15:20:42.754Z,7.52
2023-01-17T15:23:18.303Z,8.03
2023-01-17T15:25:49.489Z,7.46
2023-01-17T15:28:16.714Z,7.69
2023-01-17T15:31:00.683Z,7.49
2023-01-17T15:33:27.693Z,7.96
2023-01-17T15:36:21.393Z,7.38
2023-01-17T15:39:00.425Z,7.81
2023-01-17T15:41:34.805Z,7.58
2023-01-17T15:44:02.438Z,7.62
2023-01-17T15:46:42.095Z,7.76
2023-01-17T15:49:21.048Z,7.58
2023-01-17T15:51:51.487Z,6.87
2023-01-17T15:54:50.589Z,7.49
2023-01-17T15:57:18.025Z,7.04
2023-01-17T16:00:14.787Z,6.96
2023-01-17T16:02:46.394Z,7.31
2023-01-17T16:05:22.777Z,6.99
2023-01-17T16:07:53.135Z,7.07
2023-01-17T16:10:22.220Z,7.28
2023-01-17T16:12:53.899Z,7.11
2023-01-17T16:15:22.148Z,7.70
2023-01-17T16:17:51.674Z,7.63
2023-01-17T16:20:28.145Z,6.86
2023-01-17T16:22:54.754Z,7.53
2023-01-17T16:25:23.809Z,6.74
2023-01-17T16:27:51.080Z,6.87
2023-01-17T16:30:21.302Z,6.07
2023-01-17T16:32:49.104Z,6.28
2023-01-17T16:35:21.542Z,6.59
2023-01-17T16:37:53.219Z,6.00
2023-01-17T16:40:21.862Z,6.10
2023-01-17T16:42:48.552Z,5.89
2023-01-17T16:45:16.261Z,6.05
2023-01-17T16:47:46.989Z,6.68
2023-01-17T16:50:16.435Z,6.62
2023-01-17T16:52:43.027Z,6.53
2023-01-17T16:55:14.276Z,6.25
2023-01-17T16:57:40.992Z,6.59
2023-01-17T17:00:09.839Z,6.67
2023-01-17T17:02:38.563Z,6.58
2023-01-17T17:05:07.404Z,5.94
2023-01-17T17:07:43.049Z,5.98
2023-01-17T17:10:11.218Z,6.16
2023-01-17T17:12:37.901Z,6.00
2023-01-17T17:15:05.408Z,6.33
2023-01-17T17:17:39.831Z,6.30
2023-01-17T17:20:09.840Z,6.15
2023-01-17T17:22:36.425Z,5.71
2023-01-17T17:25:03.401Z,5.97
2023-01-17T17:27:29.957Z,5.86
2023-01-17T17:29:56.506Z,5.51
2023-01-17T17:32:23.365Z,5.98
2023-01-17T17:34:52.861Z,5.25
2023-01-17T17:37:19.532Z,5.04
2023-01-17T17:39:46.144Z,5.51
2023-01-17T17:42:12.949Z,5.32
2023-01-17T17:44:39.567Z,5.37
2023-01-17T17:47:06.180Z,5.14
2023-01-17T17:49:32.911Z,5.43
2023-01-17T17:52:06.886Z,5.29
2023-01-17T17:54:33.994Z,5.67
2023-01-17T17:57:00.699Z,5.63
2023-01-17T17:59:27.309Z,5.34
2023-01-17T18:01:54.164Z,5.54
2023-01-17T18:04:21.657Z,5.70
2023-01-17T18:06:48.361Z,5.42
2023-01-17T18:09:15.115Z,5.37
2023-01-17T18:11:43.301Z,5.91
2023-01-17T18:14:13.939Z,5.64
2023-01-17T18:16:43.282Z,6.04
2023-01-17T18:19:15.903Z,5.99
2023-01-17T18:21:43.548Z,6.11
2023-01-17T18:24:12.928Z,5.77
2023-01-17T18:26:48.467Z,5.78
2023-01-17T18:29:16.502Z,5.75
2023-01-17T18:31:44.911Z,5.48
2023-01-17T18:34:16.629Z,5.65
2023-01-17T18:36:43.987Z,5.66
2023-01-17T18:39:17.124Z,5.19
2023-01-17T18:41:47.289Z,5.44
2023-01-17T18:44:14.113Z,5.32
2023-01-17T18:46:42.122Z,5.21
2023-01-17T18:49:13.228Z,4.81
2023-01-17T18:51:39.855Z,5.36
2023-01-17T18:54:08.758Z,5.44
2023-01-17T18:56:35.597Z,5.25
2023-01-17T18:59:02.821Z,5.53
2023-01-17T19:01:33.628Z,5.24
2023-01-17T19:04:04.550Z,5.00
2023-01-17T19:06:34.510Z,5.24
2023-01-17T19:09:01.553Z,4.98
2023-01-17T19:11:28.849Z,5.00
2023-01-17T19:13:55.959Z,4.67
2023-01-17T19:16:28.702Z,4.41
2023-01-17T19:18:56.999Z,4.74
2023-01-17T19:21:26.022Z,4.50
2023-01-17T19:23:54.268Z,4.65
2023-01-17T19:26:23.109Z,4.66
2023-01-17T19:28:50.619Z,4.23
2023-01-17T19:31:22.631Z,4.51
2023-01-17T19:33:51.535Z,4.62
2023-01-17T19:36:21.490Z,4.51
2023-01-17T19:39:03.061Z,4.41
2023-01-17T19:41:32.713Z,4.28
2023-01-17T19:44:02.038Z,4.06
2023-01-17T19:46:29.153Z,3.98
2023-01-17T19:48:59.585Z,3.93
2023-01-17T19:51:29.393Z,3.92
2023-01-17T19:53:58.884Z,4.04
2023-01-17T19:56:26.669Z,4.26
2023-01-17T19:58:53.886Z,4.81
2023-01-17T20:01:24.021Z,4.83
2023-01-17T20:03:51.673Z,5.09
2023-01-17T20:06:23.961Z,5.03
2023-01-17T20:08:50.898Z,4.32
2023-01-17T20:11:19.953Z,4.93
2023-01-17T20:13:47.962Z,5.07
2023-01-17T20:16:16.671Z,4.91
2023-01-17T20:18:44.177Z,5.23
2023-01-17T20:21:14.109Z,4.78
2023-01-17T20:23:43.066Z,4.96
2023-01-17T20:26:11.294Z,4.94
2023-01-17T20:28:40.097Z,4.91
2023-01-17T20:31:09.018Z,5.13
2023-01-17T20:33:55.771Z,5.06
2023-01-17T20:36:25.370Z,4.37
2023-01-17T20:38:53.303Z,5.23
2023-01-17T20:41:43.139Z,5.95
2023-01-17T20:44:13.040Z,4.97
2023-01-17T20:46:41.310Z,4.71
2023-01-17T20:49:14.655Z,5.09
2023-01-17T20:51:42.065Z,4.69
2023-01-17T20:54:13.757Z,4.34
2023-01-17T20:56:42.787Z,4.29
2023-01-17T20:59:12.911Z,4.17
2023-01-17T21:01:39.612Z,4.28
2023-01-17T21:04:10.091Z,4.08
2023-01-17T21:06:41.264Z,4.20
2023-01-17T21:09:23.625Z,4.52
2023-01-17T21:11:51.743Z,4.51
2023-01-17T21:14:18.364Z,4.44
2023-01-17T21:16:44.927Z,3.95
2023-01-17T21:19:47.648Z,4.08
2023-01-17T21:22:32.519Z,4.53
2023-01-17T21:24:59.958Z,4.28
2023-01-17T21:27:29.306Z,4.66
2023-01-17T21:30:11.718Z,4.47
2023-01-17T21:32:38.249Z,4.60
2023-01-17T21:38:06.865Z,4.27
2023-01-17T21:40:33.908Z,4.62
2023-01-17T21:43:00.501Z,4.63
2023-01-17T21:45:31.927Z,4.12
2023-01-17T21:47:59.191Z,3.91
2023-01-17T21:50:33.399Z,3.92
2023-01-17T21:53:00.410Z,4.18
2023-01-17T21:55:50.202Z,4.44
2023-01-17T21:58:36.173Z,4.56
2023-01-17T22:01:30.349Z,4.41
2023-01-17T22:04:03.802Z,5.22
2023-01-17T22:06:32.708Z,4.89
2023-01-17T22:09:23.413Z,4.72
2023-01-17T22:12:11.795Z,4.53
2023-01-17T22:14:39.302Z,4.76
2023-01-17T22:17:05.825Z,4.65
2023-01-17T22:19:33.661Z,4.86
2023-01-17T22:22:00.320Z,4.57
2023-01-17T22:24:27.150Z,5.04
2023-01-17T22:26:57.766Z,5.39
2023-01-17T22:29:24.527Z,5.74
2023-01-17T22:31:51.193Z,5.99
2023-01-17T22:34:18.897Z,5.57
2023-01-17T22:37:08.060Z,5.17
2023-01-17T22:40:10.064Z,4.76
2023-01-17T22:42:49.330Z,5.35
2023-01-17T22:45:19.462Z,5.50
2023-01-17T22:47:46.056Z,5.80
2023-01-17T22:50:13.258Z,5.28
2023-01-17T22:52:39.863Z,5.79
2023-01-17T22:55:06.716Z,6.00
2023-01-17T22:57:33.959Z,6.13
2023-01-17T23:00:00.521Z,6.13
2023-01-17T23:02:27.119Z,5.68
2023-01-17T23:04:53.701Z,5.81
2023-01-17T23:07:20.328Z,6.33
2023-01-17T23:09:46.888Z,6.24
2023-01-17T23:12:39.086Z,6.33
2023-01-17T23:15:49.904Z,6.40
2023-01-17T23:18:35.219Z,6.75
2023-01-17T23:21:02.282Z,7.08
2023-01-17T23:23:28.809Z,7.05
2023-01-17T23:26:07.447Z,6.86
2023-01-17T23:28:33.977Z,6.86
2023-01-17T23:31:03.680Z,7.25
2023-01-17T23:33:30.429Z,7.16
2023-01-17T23:35:57.129Z,6.88
2023-01-17T23:38:26.469Z,7.26
2023-01-17T23:41:18.707Z,7.31
2023-01-17T23:43:50.615Z,7.28
2023-01-17T23:46:17.165Z,7.38
2023-01-17T23:48:43.665Z,7.22
2023-01-17T23:51:10.246Z,7.50
2023-01-17T23:53:38.988Z,7.66
2023-01-17T23:56:27.129Z,7.53
2023-01-17T23:58:54.435Z,7.79
